Time;durP1;ratioP1;P1;durP2;ratioP2;P2;SDS_P1;SDS_P2;PMS_P1;PMS_P2;Temp;Humidity;BMP_temperature;BMP_pressure;BME280_temperature;BME280_humidity;BME280_pressure;Samples;Min_cycle;Max_cycle;Signal;HPM_P1;HPM_P2
2023/05/06 00:01:19;;;;;;;19.25;7.03;;;;;;;10.01;100.00;100680.19;5104325;28;20044;-83
2023/05/06 00:03:46;;;;;;;12.18;4.63;;;;;;;10.12;100.00;100687.63;5113815;28;20055;-84
2023/05/06 00:06:13;;;;;;;12.68;4.65;;;;;;;10.03;100.00;100673.13;5117128;27;20044;-83
2023/05/06 00:08:40;;;;;;;15.00;5.00;;;;;;;9.92;100.00;100660.44;5114067;28;20498;-84
2023/05/06 00:11:07;;;;;;;18.75;6.93;;;;;;;10.04;100.00;100667.84;5107464;28;20051;-83
2023/05/06 00:13:33;;;;;;;23.92;8.20;;;;;;;9.90;100.00;100651.81;5112634;28;20477;-84
2023/05/06 00:16:00;;;;;;;16.85;7.03;;;;;;;9.88;100.00;100651.84;5110862;28;20530;-84
2023/05/06 00:18:27;;;;;;;16.70;6.53;;;;;;;9.94;100.00;100655.16;5107350;28;20134;-84
2023/05/06 00:20:54;;;;;;;13.13;5.03;;;;;;;10.01;100.00;100657.47;5115438;28;20040;-84
2023/05/06 00:23:21;;;;;;;21.20;8.10;;;;;;;9.99;100.00;100658.47;5113988;28;20056;-83
2023/05/06 00:25:48;;;;;;;18.25;7.03;;;;;;;10.16;100.00;100684.81;5114937;28;20052;-84
2023/05/06 00:28:15;;;;;;;14.38;5.28;;;;;;;10.27;100.00;100714.09;5114093;28;20499;-83
2023/05/06 00:30:41;;;;;;;26.13;9.68;;;;;;;10.38;100.00;100720.72;5113651;28;20130;-83
2023/05/06 00:33:08;;;;;;;20.95;7.53;;;;;;;10.39;100.00;100718.06;5113392;28;20416;-84
2023/05/06 00:35:35;;;;;;;17.33;6.03;;;;;;;10.25;100.00;100681.03;5100532;28;20139;-84
2023/05/06 00:38:08;;;;;;;15.10;6.70;;;;;;;10.35;100.00;100700.75;5113491;28;20052;-84
2023/05/06 00:40:35;;;;;;;22.63;8.15;;;;;;;10.34;100.00;100709.53;5115138;28;20058;-84
2023/05/06 00:43:02;;;;;;;20.38;8.23;;;;;;;10.34;100.00;100700.78;5111441;28;20044;-83
2023/05/06 00:45:29;;;;;;;26.80;9.35;;;;;;;10.35;100.00;100705.13;5113478;28;20082;-83
2023/05/06 00:47:57;;;;;;;20.50;8.80;;;;;;;10.46;100.00;100721.28;5099996;28;20055;-83
2023/05/06 00:50:27;;;;;;;19.17;7.63;;;;;;;10.05;100.00;100648.59;5113062;28;20123;-83
2023/05/06 00:52:55;;;;;;;18.85;7.95;;;;;;;10.29;100.00;100676.53;5111909;28;20105;-84
2023/05/06 00:55:23;;;;;;;24.23;8.35;;;;;;;10.03;100.00;100652.19;5112582;28;20412;-83
2023/05/06 00:57:50;;;;;;;20.00;7.35;;;;;;;10.03;100.00;100675.75;5114303;28;20048;-84
2023/05/06 01:00:19;;;;;;;15.65;7.63;;;;;;;10.10;100.00;100689.47;5113001;28;20052;-84
2023/05/06 01:02:46;;;;;;;19.13;6.72;;;;;;;10.17;100.00;100665.63;5112276;28;20047;-84
2023/05/06 01:05:19;;;;;;;21.92;9.15;;;;;;;10.36;100.00;100699.00;5113575;27;20130;-84
2023/05/06 01:08:05;;;;;;;18.58;8.30;;;;;;;10.51;100.00;100721.97;5114408;28;20515;-84
2023/05/06 01:10:51;;;;;;;17.77;6.97;;;;;;;10.02;100.00;100645.25;5113296;28;20480;-84
2023/05/06 01:14:05;;;;;;;19.80;7.63;;;;;;;10.49;100.00;100720.34;5112133;28;20047;-84
2023/05/06 01:16:35;;;;;;;;;;;;;;;10.58;100.00;100719.97;5104673;28;20048;-84
2023/05/06 01:19:05;;;;;;;20.63;7.68;;;;;;;10.28;100.00;100688.78;5112010;28;19920;-83
2023/05/06 01:21:33;;;;;;;22.38;8.48;;;;;;;10.27;100.00;100702.78;5108570;28;20070;-83
2023/05/06 01:24:00;;;;;;;19.35;7.88;;;;;;;10.26;100.00;100709.75;5110156;28;20475;-84
2023/05/06 01:26:27;;;;;;;21.20;8.10;;;;;;;10.26;100.00;100698.44;5099187;28;20193;-83
2023/05/06 01:28:56;;;;;;;25.17;9.07;;;;;;;10.02;100.00;100658.31;5113876;28;20047;-84
2023/05/06 01:31:51;;;;;;;19.73;8.57;;;;;;;10.42;100.00;100711.84;5112520;28;20039;-84
2023/05/06 01:34:45;;;;;;;18.52;7.32;;;;;;;10.29;100.00;100698.34;5110767;28;20047;-83
2023/05/06 01:37:21;;;;;;;23.77;8.52;;;;;;;10.42;100.00;100717.09;5098227;28;20050;-83
2023/05/06 01:39:48;;;;;;;19.88;7.93;;;;;;;10.17;100.00;100689.16;5112141;28;20058;-83
2023/05/06 01:42:16;;;;;;;16.45;7.15;;;;;;;9.95;100.00;100664.69;5111441;28;20477;-84
2023/05/06 01:44:43;;;;;;;23.33;8.25;;;;;;;10.04;100.00;100678.31;5111422;28;20048;-84
2023/05/06 01:47:12;;;;;;;19.13;7.85;;;;;;;10.09;100.00;100683.34;5104055;28;20469;-83
2023/05/06 01:49:38;;;;;;;18.95;6.63;;;;;;;10.20;100.00;100693.44;5111870;28;20048;-83
2023/05/06 01:52:05;;;;;;;27.55;9.50;;;;;;;9.81;100.00;100645.13;5111632;28;20042;-83
2023/05/06 01:54:32;;;;;;;26.75;8.55;;;;;;;9.91;100.00;100643.03;5110124;28;20055;-83
2023/05/06 01:56:59;;;;;;;30.80;10.95;;;;;;;9.90;100.00;100649.19;5099922;28;20054;-83
2023/05/06 01:59:26;;;;;;;22.73;9.27;;;;;;;9.91;100.00;100666.56;5113204;28;20055;-83
2023/05/06 02:01:54;;;;;;;25.70;9.35;;;;;;;9.96;100.00;100655.94;5097862;28;20040;-84
2023/05/06 02:04:21;;;;;;;26.23;10.07;;;;;;;10.02;100.00;100663.56;5112204;28;20055;-83
2023/05/06 02:06:48;;;;;;;22.02;7.65;;;;;;;10.07;100.00;100661.63;5112033;28;20058;-83
2023/05/06 02:09:15;;;;;;;24.30;9.45;;;;;;;9.99;100.00;100655.84;5113868;28;20047;-84
2023/05/06 02:11:41;;;;;;;27.63;11.43;;;;;;;10.24;100.00;100697.66;5112898;28;20051;-84
2023/05/06 02:14:08;;;;;;;29.88;11.85;;;;;;;9.87;100.00;100650.13;5111183;28;20404;-84
2023/05/06 02:16:35;;;;;;;32.10;12.82;;;;;;;9.94;100.00;100681.31;5111814;28;20051;-83
2023/05/06 02:19:02;;;;;;;25.70;9.75;;;;;;;10.00;100.00;100694.16;5109632;28;20104;-83
2023/05/06 02:21:29;;;;;;;24.90;9.88;;;;;;;9.80;100.00;100646.03;5112741;28;20426;-83
2023/05/06 02:23:55;;;;;;;31.58;11.65;;;;;;;10.10;100.00;100705.16;5108539;28;20044;-83
2023/05/06 02:26:22;;;;;;;20.27;8.95;;;;;;;10.04;100.00;100675.69;5111625;28;20484;-83
2023/05/06 02:28:49;;;;;;;19.60;9.43;;;;;;;10.11;100.00;100688.53;5111837;28;20048;-84
2023/05/06 02:31:15;;;;;;;28.05;12.93;;;;;;;9.84;100.00;100655.50;5113750;28;20405;-83
2023/05/06 02:33:44;;;;;;;32.05;11.48;;;;;;;10.13;100.00;100712.88;5107950;28;20482;-84
2023/05/06 02:36:11;;;;;;;28.95;10.38;;;;;;;10.31;100.00;100735.81;5112521;28;20047;-84
2023/05/06 02:38:37;;;;;;;30.20;11.23;;;;;;;10.23;100.00;100722.97;5112357;28;20048;-84
2023/05/06 02:41:04;;;;;;;33.15;12.23;;;;;;;9.94;100.00;100682.16;5112197;28;20043;-83
2023/05/06 02:43:31;;;;;;;28.30;10.70;;;;;;;9.84;100.00;100696.47;5110640;28;20043;-83
2023/05/06 02:45:58;;;;;;;31.08;12.27;;;;;;;10.18;100.00;100724.03;5111549;28;20051;-84
2023/05/06 02:48:24;;;;;;;25.92;9.35;;;;;;;10.05;100.00;100718.38;5111189;28;20077;-83
2023/05/06 02:50:51;;;;;;;31.52;12.02;;;;;;;9.99;100.00;100713.38;5109638;28;20055;-84
2023/05/06 02:53:18;;;;;;;26.58;9.73;;;;;;;9.84;100.00;100689.50;5101990;28;20055;-84
2023/05/06 02:55:45;;;;;;;25.38;10.13;;;;;;;9.93;100.00;100698.75;5111995;28;20378;-84
2023/05/06 02:58:12;;;;;;;27.73;11.00;;;;;;;9.81;100.00;100686.97;5112801;28;20487;-83
2023/05/06 03:00:38;;;;;;;24.45;10.98;;;;;;;9.86;100.00;100699.88;5098517;28;20077;-83
2023/05/06 03:03:05;;;;;;;28.20;9.23;;;;;;;10.11;100.00;100733.00;5109637;28;20067;-84
2023/05/06 03:05:32;;;;;;;25.48;9.20;;;;;;;9.89;100.00;100686.69;5112828;28;20052;-83
2023/05/06 03:07:59;;;;;;;24.40;9.95;;;;;;;10.00;100.00;100723.78;5113745;28;20108;-83
2023/05/06 03:10:26;;;;;;;25.80;11.90;;;;;;;10.04;100.00;100755.94;5116096;28;20051;-84
2023/05/06 03:12:52;;;;;;;24.73;9.98;;;;;;;9.55;100.00;100679.19;5115289;27;20047;-84
2023/05/06 03:15:19;;;;;;;20.25;7.63;;;;;;;9.93;100.00;100730.13;5095004;28;20409;-83
2023/05/06 03:17:46;;;;;;;15.88;6.60;;;;;;;9.96;100.00;100739.66;5109315;28;20048;-84
2023/05/06 03:20:13;;;;;;;23.10;10.05;;;;;;;9.84;100.00;100754.88;5105610;28;20044;-84
2023/05/06 03:22:41;;;;;;;23.27;9.00;;;;;;;9.55;100.00;100698.31;5114686;28;20437;-83
2023/05/06 03:25:08;;;;;;;22.92;8.93;;;;;;;9.57;100.00;100706.13;5113190;28;20040;-84
2023/05/06 03:27:35;;;;;;;22.27;8.77;;;;;;;9.88;100.00;100753.00;5114633;28;20055;-83
2023/05/06 03:30:02;;;;;;;31.33;9.75;;;;;;;9.62;100.00;100706.81;5114291;28;20058;-84
2023/05/06 03:32:29;;;;;;;22.40;6.82;;;;;;;9.66;100.00;100719.72;5114390;28;20043;-83
2023/05/06 03:34:56;;;;;;;16.52;6.65;;;;;;;9.90;100.00;100745.94;5109354;28;20466;-84
2023/05/06 03:37:23;;;;;;;15.88;6.32;;;;;;;10.06;100.00;100756.72;5115223;28;20054;-83
2023/05/06 03:39:50;;;;;;;41.13;10.13;;;;;;;9.77;100.00;100739.41;5114457;28;20047;-83
2023/05/06 03:42:16;;;;;;;25.23;8.63;;;;;;;9.74;100.00;100742.13;5112177;28;20043;-84
2023/05/06 03:44:43;;;;;;;22.40;8.50;;;;;;;9.69;100.00;100724.00;5114982;28;20056;-84
2023/05/06 03:47:10;;;;;;;19.50;7.20;;;;;;;9.42;100.00;100670.88;5113676;28;20051;-84
2023/05/06 03:49:36;;;;;;;27.40;8.82;;;;;;;9.86;100.00;100758.28;5114889;28;20047;-84
2023/05/06 03:52:04;;;;;;;32.08;10.38;;;;;;;9.42;100.00;100702.25;5113781;28;20458;-83
2023/05/06 03:54:30;;;;;;;22.45;8.80;;;;;;;9.75;100.00;100730.78;5110267;28;20055;-83
2023/05/06 03:56:57;;;;;;;19.30;7.95;;;;;;;9.82;100.00;100727.88;5104196;28;20051;-83
2023/05/06 03:59:24;;;;;;;16.95;6.75;;;;;;;9.74;100.00;100700.28;5114159;28;20520;-83
2023/05/06 04:01:50;;;;;;;19.45;7.15;;;;;;;9.90;100.00;100730.25;5113947;28;20586;-83
2023/05/06 04:04:17;;;;;;;18.42;7.82;;;;;;;9.83;100.00;100713.91;5113013;28;20115;-83
2023/05/06 04:06:44;;;;;;;20.00;8.35;;;;;;;10.12;100.00;100769.59;5113754;28;20487;-83
2023/05/06 04:09:11;;;;;;;17.20;8.05;;;;;;;9.62;100.00;100696.38;5106290;28;20047;-83
2023/05/06 04:11:37;;;;;;;14.50;6.18;;;;;;;9.69;100.00;100690.84;5113725;28;20492;-83
2023/05/06 04:14:04;;;;;;;14.80;6.97;;;;;;;9.89;100.00;100718.06;5104461;28;20123;-84
2023/05/06 04:16:31;;;;;;;22.02;8.57;;;;;;;9.57;100.00;100683.44;5097096;28;20048;-83
2023/05/06 04:18:57;;;;;;;21.98;9.38;;;;;;;9.88;100.00;100739.91;5113060;28;20130;-83
2023/05/06 04:21:24;;;;;;;22.42;8.02;;;;;;;9.77;100.00;100705.44;5110160;28;20036;-83
2023/05/06 04:23:51;;;;;;;17.65;6.55;;;;;;;9.74;100.00;100684.59;5114061;28;20048;-83
2023/05/06 04:26:17;;;;;;;21.30;8.48;;;;;;;9.76;100.00;100701.13;5114297;28;20400;-83
2023/05/06 04:28:44;;;;;;;24.92;10.18;;;;;;;9.89;100.00;100698.00;5114130;28;20492;-84
2023/05/06 04:31:13;;;;;;;20.83;9.45;;;;;;;9.71;100.00;100688.19;5114130;28;20040;-83
2023/05/06 04:33:40;;;;;;;18.50;9.13;;;;;;;9.81;100.00;100693.94;5113157;28;20051;-84
2023/05/06 04:36:07;;;;;;;30.15;11.27;;;;;;;9.88;100.00;100719.00;5112828;28;20430;-83
2023/05/06 04:38:36;;;;;;;22.20;9.07;;;;;;;9.89;100.00;100731.16;5113580;28;20397;-84
2023/05/06 04:41:04;;;;;;;23.00;9.45;;;;;;;9.80;100.00;100728.88;5103385;28;20457;-84
2023/05/06 04:43:31;;;;;;;18.85;7.93;;;;;;;9.63;100.00;100687.59;5103821;28;20409;-84
2023/05/06 04:45:58;;;;;;;21.77;9.07;;;;;;;9.84;100.00;100741.78;5110716;28;20135;-83
2023/05/06 04:48:25;;;;;;;24.20;9.05;;;;;;;9.75;100.00;100723.78;5114127;28;20102;-84
2023/05/06 04:50:52;;;;;;;20.67;9.57;;;;;;;9.46;100.00;100693.41;5114486;28;20460;-84
2023/05/06 04:53:19;;;;;;;23.30;8.93;;;;;;;10.06;100.00;100775.03;5108615;28;20079;-84
2023/05/06 04:55:45;;;;;;;20.30;8.27;;;;;;;9.98;100.00;100767.44;5107959;28;20048;-84
2023/05/06 04:58:13;;;;;;;22.13;7.35;;;;;;;10.00;100.00;100736.84;5107270;28;20055;-83
2023/05/06 05:00:40;;;;;;;21.92;8.35;;;;;;;9.79;100.00;100722.78;5106387;28;20050;-84
2023/05/06 05:03:06;;;;;;;22.83;8.70;;;;;;;9.95;100.00;100745.78;5112745;28;20040;-84
2023/05/06 05:05:33;;;;;;;20.35;8.27;;;;;;;9.75;100.00;100713.31;5109101;28;20649;-84
2023/05/06 05:08:00;;;;;;;21.20;8.05;;;;;;;9.76;100.00;100709.81;5110984;28;20047;-84
2023/05/06 05:10:27;;;;;;;14.88;6.13;;;;;;;10.17;100.00;100769.44;5112325;28;20051;-84
2023/05/06 05:12:54;;;;;;;15.48;7.47;;;;;;;9.94;100.00;100731.00;5112470;28;20050;-84
2023/05/06 05:15:21;;;;;;;18.33;6.85;;;;;;;9.95;100.00;100735.31;5102127;28;20054;-84
2023/05/06 05:17:49;;;;;;;19.38;6.85;;;;;;;10.20;100.00;100777.19;5112609;28;20047;-83
2023/05/06 05:20:16;;;;;;;15.57;6.22;;;;;;;10.32;100.00;100778.53;5113270;28;20108;-84
2023/05/06 05:22:42;;;;;;;12.55;5.22;;;;;;;10.21;100.00;100744.84;5104273;28;20051;-84
2023/05/06 05:25:09;;;;;;;18.27;7.00;;;;;;;10.08;100.00;100718.28;5112065;28;20035;-84
2023/05/06 05:27:36;;;;;;;16.55;6.43;;;;;;;10.23;100.00;100743.91;5113141;28;20051;-84
2023/05/06 05:30:03;;;;;;;17.70;7.32;;;;;;;9.95;100.00;100696.94;5111615;28;20096;-84
2023/05/06 05:32:30;;;;;;;19.33;8.00;;;;;;;10.23;100.00;100743.91;5111658;28;20046;-84
2023/05/06 05:34:57;;;;;;;18.52;7.35;;;;;;;10.50;100.00;100777.88;5101731;28;20044;-84
2023/05/06 05:37:24;;;;;;;20.58;7.18;;;;;;;10.31;100.00;100750.63;5110534;28;20043;-84
2023/05/06 05:39:50;;;;;;;22.30;8.90;;;;;;;10.23;100.00;100738.69;5108423;28;20123;-84
2023/05/06 05:42:17;;;;;;;22.02;9.13;;;;;;;10.33;100.00;100777.63;5107594;28;20044;-84
2023/05/06 05:44:44;;;;;;;20.90;8.05;;;;;;;10.23;100.00;100748.25;5113447;28;20047;-84
2023/05/06 05:47:11;;;;;;;14.57;6.03;;;;;;;10.17;100.00;100745.88;5113180;27;20074;-83
2023/05/06 05:49:38;;;;;;;16.05;5.80;;;;;;;10.36;100.00;100761.81;5111866;28;20474;-83
2023/05/06 05:52:06;;;;;;;23.55;8.20;;;;;;;10.30;100.00;100752.38;5112625;28;20439;-84
2023/05/06 05:54:32;;;;;;;20.83;8.15;;;;;;;10.39;100.00;100765.19;5109086;28;20052;-84
2023/05/06 05:56:59;;;;;;;21.17;8.35;;;;;;;10.26;100.00;100763.88;5099015;28;20055;-84
2023/05/06 05:59:27;;;;;;;27.08;8.70;;;;;;;10.41;100.00;100789.53;5105820;28;20524;-84
2023/05/06 06:01:54;;;;;;;20.83;8.52;;;;;;;10.14;100.00;100766.91;5107385;28;20401;-83
2023/05/06 06:04:20;;;;;;;24.13;9.52;;;;;;;10.22;100.00;100767.50;5112718;28;20412;-83
2023/05/06 06:06:47;;;;;;;18.70;7.38;;;;;;;10.27;100.00;100765.59;5112350;28;20051;-83
2023/05/06 06:09:15;;;;;;;22.73;8.68;;;;;;;10.04;100.00;100740.25;5104622;28;20489;-84
2023/05/06 06:11:42;;;;;;;24.20;10.60;;;;;;;10.15;100.00;100772.09;5111726;28;20051;-84
2023/05/06 06:14:10;;;;;;;29.23;10.98;;;;;;;10.15;100.00;100755.56;5110278;28;20438;-83
2023/05/06 06:16:36;;;;;;;26.70;9.60;;;;;;;10.21;100.00;100771.03;5111403;28;20531;-83
2023/05/06 06:19:03;;;;;;;23.15;9.63;;;;;;;9.84;100.00;100722.59;5110606;28;20051;-83
2023/05/06 06:21:30;;;;;;;26.17;9.38;;;;;;;9.93;100.00;100748.44;5101933;28;20386;-84
2023/05/06 06:23:57;;;;;;;25.40;11.02;;;;;;;10.31;100.00;100821.28;5102597;28;20040;-84
2023/05/06 06:26:24;;;;;;;21.55;8.48;;;;;;;10.05;100.00;100762.84;5097861;28;20618;-84
2023/05/06 06:28:51;;;;;;;28.50;9.93;;;;;;;10.35;100.00;100807.22;5109049;28;20117;-84
2023/05/06 06:31:17;;;;;;;20.90;7.72;;;;;;;10.19;100.00;100783.31;5104460;28;20058;-83
2023/05/06 06:33:44;;;;;;;25.00;8.70;;;;;;;10.17;100.00;100777.28;5097566;28;20436;-84
2023/05/06 06:36:11;;;;;;;33.67;10.90;;;;;;;10.39;100.00;100816.66;5111487;28;20051;-83
2023/05/06 06:38:38;;;;;;;22.83;9.15;;;;;;;10.34;100.00;100798.50;5111066;28;20054;-83
2023/05/06 06:41:05;;;;;;;28.85;9.48;;;;;;;10.41;100.00;100799.13;5108982;28;20054;-83
2023/05/06 06:43:32;;;;;;;19.02;7.38;;;;;;;10.21;100.00;100769.25;5111972;28;20492;-83
2023/05/06 06:45:59;;;;;;;22.15;7.32;;;;;;;10.36;100.00;100796.69;5115240;28;20097;-83
2023/05/06 06:48:26;;;;;;;26.38;8.07;;;;;;;10.36;100.00;100790.59;5107939;28;20052;-83
2023/05/06 06:50:53;;;;;;;29.10;8.52;;;;;;;9.97;100.00;100768.38;5107756;28;20459;-83
2023/05/06 06:53:19;;;;;;;24.23;7.47;;;;;;;10.08;100.00;100784.53;5110279;28;20047;-84
2023/05/06 06:55:49;;;;;;;16.85;6.57;;;;;;;10.12;100.00;100781.81;5110906;28;20059;-83
2023/05/06 06:58:16;;;;;;;26.67;8.30;;;;;;;10.05;100.00;100779.41;5112314;28;20114;-83
2023/05/06 07:00:43;;;;;;;30.85;9.15;;;;;;;10.34;100.00;100808.09;5113131;28;20198;-84
2023/05/06 07:03:10;;;;;;;20.25;6.82;;;;;;;10.31;100.00;100816.94;5108852;28;20071;-84
2023/05/06 07:05:37;;;;;;;21.50;7.63;;;;;;;10.09;100.00;100790.59;5114982;28;20043;-84
2023/05/06 07:08:03;;;;;;;17.25;6.28;;;;;;;10.42;100.00;100842.72;5115070;28;20054;-84
2023/05/06 07:10:31;;;;;;;15.85;5.72;;;;;;;10.25;100.00;100817.97;5098207;28;20055;-84
2023/05/06 07:12:57;;;;;;;25.55;6.95;;;;;;;10.07;100.00;100803.78;5112252;28;20146;-84
2023/05/06 07:15:24;;;;;;;17.65;6.22;;;;;;;10.12;100.00;100793.13;5115149;28;20050;-84
2023/05/06 07:17:51;;;;;;;17.60;6.80;;;;;;;10.25;100.00;100798.78;5101709;28;20052;-83
2023/05/06 07:20:21;;;;;;;16.08;6.93;;;;;;;10.53;100.00;100842.34;5104137;28;20040;-84
2023/05/06 07:22:48;;;;;;;22.33;5.53;;;;;;;10.22;100.00;100799.75;5103195;28;20063;-83
2023/05/06 07:25:14;;;;;;;25.05;8.48;;;;;;;10.36;100.00;100825.47;5108174;28;20055;-83
2023/05/06 07:27:41;;;;;;;25.85;7.32;;;;;;;10.41;100.00;100839.25;5104826;28;20080;-83
2023/05/06 07:30:08;;;;;;;26.98;8.82;;;;;;;10.26;100.00;100803.97;5107849;28;20058;-84
2023/05/06 07:32:36;;;;;;;23.42;7.95;;;;;;;10.05;100.00;100773.31;5112233;28;20044;-84
2023/05/06 07:35:03;;;;;;;24.75;7.18;;;;;;;10.32;100.00;100813.38;5115531;28;20048;-84
2023/05/06 07:37:29;;;;;;;28.08;8.82;;;;;;;10.25;100.00;100807.50;5110775;28;20048;-84
2023/05/06 07:39:57;;;;;;;17.60;7.07;;;;;;;10.00;100.00;100763.00;5097804;28;20048;-84
2023/05/06 07:42:23;;;;;;;34.63;8.60;;;;;;;10.35;100.00;100839.47;5109180;28;20039;-84
2023/05/06 07:44:50;;;;;;;52.38;10.95;;;;;;;10.27;100.00;100838.84;5106639;28;20131;-85
2023/05/06 07:47:30;;;;;;;15.35;5.95;;;;;;;10.34;100.00;100823.81;5106616;28;20070;-84
2023/05/06 07:49:58;;;;;;;19.33;6.13;;;;;;;10.08;100.00;100792.38;5100857;28;20048;-84
2023/05/06 07:52:25;;;;;;;16.80;6.10;;;;;;;10.55;100.00;100859.72;5108501;28;20047;-84
2023/05/06 07:54:52;;;;;;;22.17;8.32;;;;;;;10.58;100.00;100861.38;5114341;28;20113;-84
2023/05/06 07:57:19;;;;;;;23.52;6.47;;;;;;;10.06;100.00;100782.88;5114395;28;20520;-85
2023/05/06 07:59:47;;;;;;;19.67;8.13;;;;;;;10.10;100.00;100800.19;5114033;28;20059;-83
2023/05/06 08:02:14;;;;;;;19.33;6.72;;;;;;;10.46;100.00;100852.16;5110388;28;20044;-83
2023/05/06 08:04:41;;;;;;;23.40;7.38;;;;;;;10.33;100.00;100838.66;5114372;28;20083;-84
2023/05/06 08:07:09;;;;;;;22.20;6.88;;;;;;;10.38;100.00;100834.13;5106883;28;20087;-83
2023/05/06 08:09:36;;;;;;;13.85;5.68;;;;;;;10.55;100.00;100861.47;5106114;28;20049;-82
2023/05/06 08:12:04;;;;;;;29.98;7.03;;;;;;;10.43;100.00;100847.06;5113017;28;20039;-81
2023/05/06 08:14:30;;;;;;;19.77;6.65;;;;;;;10.35;100.00;100830.75;5105351;28;20124;-83
2023/05/06 08:16:57;;;;;;;17.88;6.00;;;;;;;10.16;100.00;100793.88;5113008;28;20048;-83
2023/05/06 08:19:25;;;;;;;18.58;6.03;;;;;;;10.45;100.00;100838.22;5111541;28;20048;-84
2023/05/06 08:21:52;;;;;;;20.40;7.25;;;;;;;10.45;100.00;100819.06;5109857;28;20661;-82
2023/05/06 08:24:19;;;;;;;35.10;7.60;;;;;;;10.35;100.00;100822.91;5104634;28;20748;-82
2023/05/06 08:26:46;;;;;;;13.77;5.38;;;;;;;10.53;100.00;100831.88;5129051;27;20063;-82
2023/05/06 08:29:13;;;;;;;22.00;6.40;;;;;;;10.41;100.00;100836.66;5109469;28;20485;-82
2023/05/06 08:31:39;;;;;;;44.15;10.57;;;;;;;10.28;100.00;100811.75;5111954;28;20100;-82
2023/05/06 08:34:06;;;;;;;19.85;7.20;;;;;;;10.33;100.00;100807.25;5110049;27;20374;-82
2023/05/06 08:36:33;;;;;;;41.15;9.55;;;;;;;10.67;100.00;100861.03;5113066;28;20397;-82
2023/05/06 08:39:00;;;;;;;33.95;8.85;;;;;;;10.39;100.00;100814.91;5112186;28;20044;-82
2023/05/06 08:41:29;;;;;;;48.58;11.35;;;;;;;10.49;100.00;100840.75;5113239;28;20052;-82
2023/05/06 08:43:57;;;;;;;33.78;8.60;;;;;;;10.31;100.00;100830.00;5108818;28;20047;-82
2023/05/06 08:46:23;;;;;;;24.05;7.13;;;;;;;10.54;100.00;100870.25;5106941;28;20066;-83
2023/05/06 08:48:52;;;;;;;20.67;7.10;;;;;;;10.52;100.00;100862.44;5097925;28;20064;-83
2023/05/06 08:51:23;;;;;;;25.23;8.93;;;;;;;10.17;100.00;100808.69;5098062;28;20048;-82
2023/05/06 08:53:53;;;;;;;25.92;10.00;;;;;;;10.55;100.00;100872.81;5107967;28;20396;-82
2023/05/06 08:56:26;;;;;;;43.10;8.63;;;;;;;10.40;100.00;100852.41;5103889;28;20052;-83
2023/05/06 08:58:55;;;;;;;37.45;11.82;;;;;;;10.42;100.00;100882.84;5108142;28;20108;-82
2023/05/06 09:01:22;;;;;;;18.38;7.70;;;;;;;10.72;100.00;100900.16;5109547;28;20044;-83
2023/05/06 09:03:50;;;;;;;30.77;8.57;;;;;;;10.55;100.00;100901.59;5107397;28;20415;-83
2023/05/06 09:06:16;;;;;;;23.50;9.68;;;;;;;10.22;100.00;100857.31;5098723;28;20055;-83
2023/05/06 09:08:43;;;;;;;19.45;7.13;;;;;;;10.34;100.00;100865.69;5113210;28;20044;-83
2023/05/06 09:11:29;;;;;;;19.92;7.22;;;;;;;10.50;100.00;100902.66;5112272;28;20043;-83
2023/05/06 09:14:11;;;;;;;17.20;6.93;;;;;;;10.14;100.00;100853.25;5110828;28;20122;-83
2023/05/06 09:16:40;;;;;;;23.33;10.18;;;;;;;10.29;100.00;100878.91;5107604;28;20039;-83
2023/05/06 09:19:07;;;;;;;21.70;9.90;;;;;;;10.14;100.00;100868.94;5107955;28;20657;-83
2023/05/06 09:21:36;;;;;;;23.90;10.32;;;;;;;10.49;100.00;100896.56;5110575;28;20086;-83
2023/05/06 09:24:04;;;;;;;16.65;7.53;;;;;;;10.55;100.00;100903.34;5109469;28;20405;-83
2023/05/06 09:26:33;;;;;;;23.80;9.52;;;;;;;10.36;100.00;100905.78;5110114;28;20051;-84
2023/05/06 09:29:01;;;;;;;16.58;6.90;;;;;;;10.05;100.00;100838.72;5103436;28;20421;-84
2023/05/06 09:31:28;;;;;;;20.13;9.35;;;;;;;10.30;100.00;100869.28;5103277;28;20400;-83
2023/05/06 09:33:56;;;;;;;23.08;8.57;;;;;;;10.42;100.00;100895.91;5110507;28;20079;-83
2023/05/06 09:36:26;;;;;;;22.17;8.77;;;;;;;10.42;100.00;100895.91;5112415;28;20394;-82
2023/05/06 09:38:54;;;;;;;18.48;7.63;;;;;;;10.25;100.00;100859.84;5113290;28;20474;-85
2023/05/06 09:41:25;;;;;;;27.90;9.93;;;;;;;10.12;100.00;100829.75;5101984;28;20048;-82
2023/05/06 09:43:54;;;;;;;17.27;7.28;;;;;;;10.47;100.00;100882.69;5099650;28;20051;-84
2023/05/06 09:46:22;;;;;;;109.72;56.50;;;;;;;10.60;100.00;100904.91;5093321;28;20055;-83
2023/05/06 09:48:51;;;;;;;47.85;29.48;;;;;;;10.08;100.00;100829.00;5092849;28;20083;-83
2023/05/06 09:51:19;;;;;;;137.98;72.53;;;;;;;10.06;100.00;100837.81;5109225;28;20047;-84
2023/05/06 09:53:47;;;;;;;54.08;27.60;;;;;;;10.52;100.00;100906.94;5111600;28;20044;-84
2023/05/06 09:56:15;;;;;;;130.32;71.93;;;;;;;10.24;100.00;100871.19;5107018;28;20051;-84
2023/05/06 09:58:43;;;;;;;93.03;55.88;;;;;;;10.31;100.00;100874.50;5117936;28;20556;-84
2023/05/06 10:01:12;;;;;;;59.08;31.42;;;;;;;10.59;100.00;100905.81;5114391;28;20485;-84
2023/05/06 10:03:50;;;;;;;33.80;17.55;;;;;;;10.31;100.00;100863.16;5114253;28;20051;-83
2023/05/06 10:06:21;;;;;;;41.45;23.27;;;;;;;10.01;100.00;100831.91;5104165;28;20430;-83
2023/05/06 10:08:49;;;;;;;30.92;16.77;;;;;;;10.43;100.00;100881.94;5094779;28;20044;-83
2023/05/06 10:11:17;;;;;;;32.10;14.15;;;;;;;10.52;100.00;100885.16;5097978;28;20123;-82
2023/05/06 10:13:45;;;;;;;35.90;14.70;;;;;;;10.26;100.00;100879.84;5102224;28;20618;-83
2023/05/06 10:16:14;;;;;;;32.70;17.42;;;;;;;10.18;100.00;100871.44;5106987;28;20043;-84
2023/05/06 10:18:43;;;;;;;28.42;13.38;;;;;;;10.38;100.00;100903.94;5109517;28;20138;-84
2023/05/06 10:21:20;;;;;;;25.42;10.43;;;;;;;10.39;100.00;100906.53;5109526;28;20436;-81
2023/05/06 10:23:56;;;;;;;33.00;10.82;;;;;;;10.03;100.00;100858.84;5107800;28;20040;-81
2023/05/06 10:26:25;;;;;;;18.08;9.00;;;;;;;10.33;100.00;100887.53;5106648;28;20458;-81
2023/05/06 10:28:53;;;;;;;30.65;9.55;;;;;;;10.02;100.00;100837.06;5103739;28;20063;-81
2023/05/06 10:31:20;;;;;;;25.92;9.07;;;;;;;10.34;100.00;100856.09;5101648;28;20048;-79
2023/05/06 10:33:51;;;;;;;20.00;8.25;;;;;;;10.67;100.00;100899.47;5112694;28;20059;-80
2023/05/06 10:36:21;;;;;;;25.95;9.35;;;;;;;10.45;100.00;100874.03;5094494;28;20052;-79
2023/05/06 10:38:55;;;;;;;24.77;10.15;;;;;;;10.44;100.00;100854.84;5107269;28;20055;-79
2023/05/06 10:41:26;;;;;;;15.70;6.43;;;;;;;10.78;100.00;100908.66;5103338;28;20044;-79
2023/05/06 10:43:58;;;;;;;25.02;7.68;;;;;;;10.65;100.00;100899.50;5112644;27;20048;-80
2023/05/06 10:46:26;;;;;;;20.27;9.50;;;;;;;10.45;100.00;100887.13;5101287;28;20047;-79
2023/05/06 10:49:03;;;;;;;20.33;9.00;;;;;;;10.60;100.00;100891.81;5104495;28;20097;-79
2023/05/06 10:51:30;;;;;;;15.63;5.85;;;;;;;10.50;100.00;100859.03;5101102;28;20402;-80
2023/05/06 10:53:57;;;;;;;19.30;10.68;;;;;;;10.88;100.00;100889.97;5110928;28;20101;-80
2023/05/06 10:56:25;;;;;;;22.65;10.32;;;;;;;10.91;100.00;100901.19;5099263;28;20044;-79
2023/05/06 10:58:54;;;;;;;20.05;10.85;;;;;;;10.95;100.00;100891.47;5108380;28;20055;-80
2023/05/06 11:01:25;;;;;;;17.05;6.80;;;;;;;11.00;100.00;100874.66;5112383;28;20071;-80
2023/05/06 11:03:52;;;;;;;14.68;6.32;;;;;;;10.70;100.00;100878.41;5111365;28;20052;-80
2023/05/06 11:06:37;;;;;;;26.65;8.25;;;;;;;10.63;100.00;100903.94;5110436;28;20048;-79
2023/05/06 11:09:05;;;;;;;25.30;7.75;;;;;;;10.50;100.00;100894.81;5105436;28;20055;-79
2023/05/06 11:11:56;;;;;;;16.83;7.03;;;;;;;10.59;100.00;100903.19;5108578;28;20101;-80
2023/05/06 11:14:34;;;;;;;27.60;9.73;;;;;;;10.41;100.00;100883.75;5104645;28;20097;-79